sensor_id;sensor_type;location;lat;lon;timestamp;pressure;altitude;pressure_sealevel;temperature;humidity
31483;BME280;18103;52.246;8.052;2023-03-05T00:00:49;100806.59;;;3.71;82.26
31483;BME280;18103;52.246;8.052;2023-03-05T00:03:15;100806.69;;;3.68;82.43
31483;BME280;18103;52.246;8.052;2023-03-05T00:05:40;100806.69;;;3.68;82.67
31483;BME280;18103;52.246;8.052;2023-03-05T00:08:05;100799.28;;;3.58;82.85
31483;BME280;18103;52.246;8.052;2023-03-05T00:10:31;100805.59;;;3.73;82.38
31483;BME280;18103;52.246;8.052;2023-03-05T00:12:56;100799.75;;;3.68;83.06
31483;BME280;18103;52.246;8.052;2023-03-05T00:15:21;100798.41;;;3.79;82.54
31483;BME280;18103;52.246;8.052;2023-03-05T00:17:47;100795.88;;;3.77;83.05
31483;BME280;18103;52.246;8.052;2023-03-05T00:20:12;100790.72;;;3.96;81.88
31483;BME280;18103;52.246;8.052;2023-03-05T00:22:38;100787.31;;;3.94;81.68
31483;BME280;18103;52.246;8.052;2023-03-05T00:25:04;100783.72;;;3.97;81.67
31483;BME280;18103;52.246;8.052;2023-03-05T00:27:30;100767.59;;;4.07;81.27
31483;BME280;18103;52.246;8.052;2023-03-05T00:29:55;100778.56;;;3.95;82.25
31483;BME280;18103;52.246;8.052;2023-03-05T00:32:20;100775.38;;;3.88;82.49
31483;BME280;18103;52.246;8.052;2023-03-05T00:34:46;100774.09;;;3.78;83.03
31483;BME280;18103;52.246;8.052;2023-03-05T00:37:14;100770.69;;;3.76;83.40
31483;BME280;18103;52.246;8.052;2023-03-05T00:39:39;100771.53;;;3.76;83.18
31483;BME280;18103;52.246;8.052;2023-03-05T00:42:05;100763.38;;;3.84;82.66
31483;BME280;18103;52.246;8.052;2023-03-05T00:44:30;100779.00;;;3.65;83.08
31483;BME280;18103;52.246;8.052;2023-03-05T00:46:56;100766.56;;;3.70;82.98
31483;BME280;18103;52.246;8.052;2023-03-05T00:49:21;100763.50;;;3.81;82.74
31483;BME280;18103;52.246;8.052;2023-03-05T00:51:46;100754.63;;;3.85;82.64
31483;BME280;18103;52.246;8.052;2023-03-05T00:54:12;100754.63;;;3.65;83.01
31483;BME280;18103;52.246;8.052;2023-03-05T00:56:37;100751.56;;;3.75;83.00
31483;BME280;18103;52.246;8.052;2023-03-05T00:59:03;100743.16;;;3.69;83.19
31483;BME280;18103;52.246;8.052;2023-03-05T01:01:28;100733.00;;;3.82;82.76
31483;BME280;18103;52.246;8.052;2023-03-05T01:03:53;100738.75;;;3.69;83.01
31483;BME280;18103;52.246;8.052;2023-03-05T01:06:21;100736.44;;;3.63;83.20
31483;BME280;18103;52.246;8.052;2023-03-05T01:08:46;100733.09;;;3.59;83.35
31483;BME280;18103;52.246;8.052;2023-03-05T01:11:12;100722.16;;;3.51;83.38
31483;BME280;18103;52.246;8.052;2023-03-05T01:13:37;100724.28;;;3.62;83.24
31483;BME280;18103;52.246;8.052;2023-03-05T01:16:03;100716.59;;;3.59;83.21
31483;BME280;18103;52.246;8.052;2023-03-05T01:18:29;100723.91;;;3.51;83.23
31483;BME280;18103;52.246;8.052;2023-03-05T01:20:54;100710.94;;;3.49;83.32
31483;BME280;18103;52.246;8.052;2023-03-05T01:23:20;100714.88;;;3.58;83.22
31483;BME280;18103;52.246;8.052;2023-03-05T01:25:45;100705.63;;;3.51;83.32
31483;BME280;18103;52.246;8.052;2023-03-05T01:28:16;100701.84;;;3.58;83.05
31483;BME280;18103;52.246;8.052;2023-03-05T01:30:42;100696.38;;;3.43;83.51
31483;BME280;18103;52.246;8.052;2023-03-05T01:33:07;100690.78;;;3.53;83.04
31483;BME280;18103;52.246;8.052;2023-03-05T01:35:32;100696.25;;;3.47;83.03
31483;BME280;18103;52.246;8.052;2023-03-05T01:37:58;100687.94;;;3.57;82.63
31483;BME280;18103;52.246;8.052;2023-03-05T01:40:25;100689.16;;;3.50;82.98
31483;BME280;18103;52.246;8.052;2023-03-05T01:42:59;100686.19;;;3.58;82.63
31483;BME280;18103;52.246;8.052;2023-03-05T01:45:28;100679.88;;;3.43;83.07
31483;BME280;18103;52.246;8.052;2023-03-05T01:47:54;100672.91;;;3.43;83.04
31483;BME280;18103;52.246;8.052;2023-03-05T01:50:21;100675.66;;;3.40;82.90
31483;BME280;18103;52.246;8.052;2023-03-05T01:53:02;100678.41;;;3.37;83.33
31483;BME280;18103;52.246;8.052;2023-03-05T01:55:29;100666.94;;;3.40;83.09
31483;BME280;18103;52.246;8.052;2023-03-05T01:58:04;100671.72;;;3.30;83.54
31483;BME280;18103;52.246;8.052;2023-03-05T02:00:37;100678.03;;;3.24;83.76
31483;BME280;18103;52.246;8.052;2023-03-05T02:03:06;100667.16;;;3.35;83.14
31483;BME280;18103;52.246;8.052;2023-03-05T02:05:35;100662.28;;;3.28;83.57
31483;BME280;18103;52.246;8.052;2023-03-05T02:08:05;100659.09;;;3.41;83.22
31483;BME280;18103;52.246;8.052;2023-03-05T02:10:35;100655.69;;;3.39;83.16
31483;BME280;18103;52.246;8.052;2023-03-05T02:13:05;100654.97;;;3.36;83.12
31483;BME280;18103;52.246;8.052;2023-03-05T02:15:32;100643.69;;;3.35;83.30
31483;BME280;18103;52.246;8.052;2023-03-05T02:17:58;100651.06;;;3.25;83.62
31483;BME280;18103;52.246;8.052;2023-03-05T02:20:28;100648.25;;;3.30;83.51
31483;BME280;18103;52.246;8.052;2023-03-05T02:22:53;100644.34;;;3.40;83.15
31483;BME280;18103;52.246;8.052;2023-03-05T02:25:24;100645.91;;;3.45;83.10
31483;BME280;18103;52.246;8.052;2023-03-05T02:28:00;100640.84;;;3.40;83.47
31483;BME280;18103;52.246;8.052;2023-03-05T02:30:27;100641.00;;;3.37;83.39
31483;BME280;18103;52.246;8.052;2023-03-05T02:32:53;100635.47;;;3.24;83.87
31483;BME280;18103;52.246;8.052;2023-03-05T02:35:19;100633.31;;;3.34;83.62
31483;BME280;18103;52.246;8.052;2023-03-05T02:37:45;100636.56;;;3.39;83.75
31483;BME280;18103;52.246;8.052;2023-03-05T02:40:11;100631.75;;;3.30;84.06
31483;BME280;18103;52.246;8.052;2023-03-05T02:42:37;100631.22;;;3.42;83.57
31483;BME280;18103;52.246;8.052;2023-03-05T02:45:04;100626.38;;;3.33;84.06
31483;BME280;18103;52.246;8.052;2023-03-05T02:47:30;100616.31;;;3.25;84.82
31483;BME280;18103;52.246;8.052;2023-03-05T02:49:56;100614.16;;;3.14;84.64
31483;BME280;18103;52.246;8.052;2023-03-05T02:52:21;100614.47;;;3.27;84.81
31483;BME280;18103;52.246;8.052;2023-03-05T02:54:48;100615.06;;;3.34;84.73
31483;BME280;18103;52.246;8.052;2023-03-05T02:57:14;100611.53;;;3.35;84.23
31483;BME280;18103;52.246;8.052;2023-03-05T02:59:39;100604.28;;;3.41;84.40
31483;BME280;18103;52.246;8.052;2023-03-05T03:02:04;100603.50;;;3.39;84.13
31483;BME280;18103;52.246;8.052;2023-03-05T03:04:30;100608.13;;;3.33;84.81
31483;BME280;18103;52.246;8.052;2023-03-05T03:06:55;100601.25;;;3.51;83.99
31483;BME280;18103;52.246;8.052;2023-03-05T03:09:21;100593.19;;;3.36;84.36
31483;BME280;18103;52.246;8.052;2023-03-05T03:11:46;100593.53;;;3.29;84.41
31483;BME280;18103;52.246;8.052;2023-03-05T03:14:11;100587.34;;;3.31;84.53
31483;BME280;18103;52.246;8.052;2023-03-05T03:16:37;100586.72;;;3.26;84.71
31483;BME280;18103;52.246;8.052;2023-03-05T03:19:02;100579.94;;;3.22;84.51
31483;BME280;18103;52.246;8.052;2023-03-05T03:21:27;100580.97;;;3.18;84.75
31483;BME280;18103;52.246;8.052;2023-03-05T03:23:53;100579.72;;;3.27;84.66
31483;BME280;18103;52.246;8.052;2023-03-05T03:26:18;100577.19;;;3.25;84.87
31483;BME280;18103;52.246;8.052;2023-03-05T03:28:44;100580.63;;;3.25;84.79
31483;BME280;18103;52.246;8.052;2023-03-05T03:31:10;100572.03;;;3.23;84.46
31483;BME280;18103;52.246;8.052;2023-03-05T03:33:35;100562.59;;;3.40;84.41
31483;BME280;18103;52.246;8.052;2023-03-05T03:36:02;100566.69;;;3.27;84.17
31483;BME280;18103;52.246;8.052;2023-03-05T03:38:28;100566.38;;;3.33;83.95
31483;BME280;18103;52.246;8.052;2023-03-05T03:40:53;100558.00;;;3.26;83.81
31483;BME280;18103;52.246;8.052;2023-03-05T03:43:18;100552.78;;;3.26;83.96
31483;BME280;18103;52.246;8.052;2023-03-05T03:45:44;100557.94;;;3.28;83.95
31483;BME280;18103;52.246;8.052;2023-03-05T03:48:10;100552.22;;;3.19;84.07
31483;BME280;18103;52.246;8.052;2023-03-05T03:50:42;100559.63;;;3.29;83.92
31483;BME280;18103;52.246;8.052;2023-03-05T03:53:08;100552.00;;;3.24;84.19
31483;BME280;18103;52.246;8.052;2023-03-05T03:55:37;100555.19;;;3.31;84.01
31483;BME280;18103;52.246;8.052;2023-03-05T03:58:02;100546.38;;;3.33;83.81
31483;BME280;18103;52.246;8.052;2023-03-05T04:00:28;100549.03;;;3.13;84.53
31483;BME280;18103;52.246;8.052;2023-03-05T04:02:53;100547.91;;;3.18;84.35
31483;BME280;18103;52.246;8.052;2023-03-05T04:05:19;100539.50;;;3.12;84.69
31483;BME280;18103;52.246;8.052;2023-03-05T04:07:44;100537.34;;;3.21;84.35
31483;BME280;18103;52.246;8.052;2023-03-05T04:10:10;100533.16;;;3.17;84.21
31483;BME280;18103;52.246;8.052;2023-03-05T04:12:36;100528.44;;;3.25;83.99
31483;BME280;18103;52.246;8.052;2023-03-05T04:15:02;100527.31;;;3.12;84.18
31483;BME280;18103;52.246;8.052;2023-03-05T04:17:27;100527.88;;;3.19;84.19
31483;BME280;18103;52.246;8.052;2023-03-05T04:19:53;100524.22;;;3.04;84.45
31483;BME280;18103;52.246;8.052;2023-03-05T04:22:18;100516.03;;;3.12;84.03
31483;BME280;18103;52.246;8.052;2023-03-05T04:24:43;100516.19;;;3.08;84.33
31483;BME280;18103;52.246;8.052;2023-03-05T04:27:09;100515.66;;;3.00;84.71
31483;BME280;18103;52.246;8.052;2023-03-05T04:29:35;100515.59;;;3.02;84.81
31483;BME280;18103;52.246;8.052;2023-03-05T04:32:01;100510.13;;;3.08;84.53
31483;BME280;18103;52.246;8.052;2023-03-05T04:34:27;100508.56;;;3.04;84.38
31483;BME280;18103;52.246;8.052;2023-03-05T04:36:52;100511.19;;;3.04;84.05
31483;BME280;18103;52.246;8.052;2023-03-05T04:39:18;100500.81;;;3.02;84.47
31483;BME280;18103;52.246;8.052;2023-03-05T04:41:48;100506.94;;;3.01;84.60
31483;BME280;18103;52.246;8.052;2023-03-05T04:44:13;100505.03;;;3.05;84.79
31483;BME280;18103;52.246;8.052;2023-03-05T04:46:39;100506.34;;;2.95;84.90
31483;BME280;18103;52.246;8.052;2023-03-05T04:49:05;100504.47;;;2.98;85.10
31483;BME280;18103;52.246;8.052;2023-03-05T04:51:30;100499.19;;;3.00;84.80
31483;BME280;18103;52.246;8.052;2023-03-05T04:53:56;100495.47;;;3.05;85.55
31483;BME280;18103;52.246;8.052;2023-03-05T04:56:21;100492.06;;;3.03;84.96
31483;BME280;18103;52.246;8.052;2023-03-05T04:58:47;100493.38;;;2.93;85.99
31483;BME280;18103;52.246;8.052;2023-03-05T05:01:13;100488.19;;;2.93;86.01
31483;BME280;18103;52.246;8.052;2023-03-05T05:03:39;100488.47;;;2.87;86.17
31483;BME280;18103;52.246;8.052;2023-03-05T05:06:04;100477.75;;;2.93;86.04
31483;BME280;18103;52.246;8.052;2023-03-05T05:08:30;100481.91;;;2.97;86.25
31483;BME280;18103;52.246;8.052;2023-03-05T05:10:56;100481.00;;;2.98;86.39
31483;BME280;18103;52.246;8.052;2023-03-05T05:13:22;100484.16;;;2.86;86.82
31483;BME280;18103;52.246;8.052;2023-03-05T05:15:48;100478.72;;;2.90;86.69
31483;BME280;18103;52.246;8.052;2023-03-05T05:18:13;100473.50;;;2.90;86.73
31483;BME280;18103;52.246;8.052;2023-03-05T05:20:38;100476.19;;;2.89;86.98
31483;BME280;18103;52.246;8.052;2023-03-05T05:23:04;100467.66;;;2.85;86.91
31483;BME280;18103;52.246;8.052;2023-03-05T05:25:29;100483.28;;;2.85;86.63
31483;BME280;18103;52.246;8.052;2023-03-05T05:27:54;100474.31;;;2.93;86.21
31483;BME280;18103;52.246;8.052;2023-03-05T05:30:20;100475.97;;;2.94;86.25
31483;BME280;18103;52.246;8.052;2023-03-05T05:32:45;100478.78;;;2.89;86.47
31483;BME280;18103;52.246;8.052;2023-03-05T05:35:11;100471.19;;;2.84;86.62
31483;BME280;18103;52.246;8.052;2023-03-05T05:37:36;100479.38;;;2.96;86.45
31483;BME280;18103;52.246;8.052;2023-03-05T05:40:02;100481.34;;;2.90;86.25
31483;BME280;18103;52.246;8.052;2023-03-05T05:42:29;100481.41;;;2.89;86.29
31483;BME280;18103;52.246;8.052;2023-03-05T05:44:55;100478.94;;;2.86;86.57
31483;BME280;18103;52.246;8.052;2023-03-05T05:47:20;100484.44;;;2.99;86.16
31483;BME280;18103;52.246;8.052;2023-03-05T05:49:46;100479.78;;;2.86;87.18
31483;BME280;18103;52.246;8.052;2023-03-05T05:52:11;100479.53;;;2.93;86.70
31483;BME280;18103;52.246;8.052;2023-03-05T05:54:38;100475.97;;;2.94;86.64
31483;BME280;18103;52.246;8.052;2023-03-05T05:57:03;100463.09;;;2.90;86.67
31483;BME280;18103;52.246;8.052;2023-03-05T05:59:28;100472.53;;;2.93;86.77
31483;BME280;18103;52.246;8.052;2023-03-05T06:01:54;100470.00;;;2.91;86.73
31483;BME280;18103;52.246;8.052;2023-03-05T06:04:19;100477.81;;;2.91;86.99
31483;BME280;18103;52.246;8.052;2023-03-05T06:06:45;100467.38;;;2.91;87.11
31483;BME280;18103;52.246;8.052;2023-03-05T06:09:10;100471.84;;;3.08;86.44
31483;BME280;18103;52.246;8.052;2023-03-05T06:11:36;100477.53;;;2.98;86.96
31483;BME280;18103;52.246;8.052;2023-03-05T06:14:01;100475.88;;;2.97;87.02
31483;BME280;18103;52.246;8.052;2023-03-05T06:16:28;100475.91;;;2.95;87.31
31483;BME280;18103;52.246;8.052;2023-03-05T06:18:53;100464.56;;;2.96;87.08
31483;BME280;18103;52.246;8.052;2023-03-05T06:21:20;100467.38;;;2.91;87.42
31483;BME280;18103;52.246;8.052;2023-03-05T06:23:47;100463.72;;;2.96;87.51
31483;BME280;18103;52.246;8.052;2023-03-05T06:26:16;100468.88;;;2.97;87.06
31483;BME280;18103;52.246;8.052;2023-03-05T06:28:42;100466.19;;;2.99;87.06
31483;BME280;18103;52.246;8.052;2023-03-05T06:31:15;100463.72;;;2.96;87.07
31483;BME280;18103;52.246;8.052;2023-03-05T06:33:41;100467.97;;;2.98;87.09
31483;BME280;18103;52.246;8.052;2023-03-05T06:36:10;100461.88;;;2.98;87.13
31483;BME280;18103;52.246;8.052;2023-03-05T06:38:35;100457.66;;;2.95;87.37
31483;BME280;18103;52.246;8.052;2023-03-05T06:41:06;100465.06;;;3.04;86.66
31483;BME280;18103;52.246;8.052;2023-03-05T06:43:34;100464.50;;;2.98;87.07
31483;BME280;18103;52.246;8.052;2023-03-05T06:46:04;100462.69;;;3.00;87.18
31483;BME280;18103;52.246;8.052;2023-03-05T06:48:30;100466.06;;;3.02;87.05
31483;BME280;18103;52.246;8.052;2023-03-05T06:50:55;100462.81;;;2.97;87.32
31483;BME280;18103;52.246;8.052;2023-03-05T06:53:22;100452.25;;;3.00;87.31
31483;BME280;18103;52.246;8.052;2023-03-05T06:55:48;100460.00;;;3.01;87.12
31483;BME280;18103;52.246;8.052;2023-03-05T06:58:13;100460.97;;;2.99;87.27
31483;BME280;18103;52.246;8.052;2023-03-05T07:00:38;100460.84;;;3.02;87.13
31483;BME280;18103;52.246;8.052;2023-03-05T07:03:04;100456.28;;;3.07;86.78
31483;BME280;18103;52.246;8.052;2023-03-05T07:05:29;100455.00;;;3.16;86.88
31483;BME280;18103;52.246;8.052;2023-03-05T07:07:54;100459.84;;;3.04;86.90
31483;BME280;18103;52.246;8.052;2023-03-05T07:10:20;100459.53;;;3.12;86.75
31483;BME280;18103;52.246;8.052;2023-03-05T07:12:45;100451.13;;;3.05;87.05
31483;BME280;18103;52.246;8.052;2023-03-05T07:15:11;100451.88;;;3.07;87.13
31483;BME280;18103;52.246;8.052;2023-03-05T07:17:36;100457.97;;;3.08;86.93
31483;BME280;18103;52.246;8.052;2023-03-05T07:20:02;100450.41;;;3.02;87.26
31483;BME280;18103;52.246;8.052;2023-03-05T07:22:28;100448.44;;;3.07;86.89
31483;BME280;18103;52.246;8.052;2023-03-05T07:24:54;100434.44;;;3.10;86.76
31483;BME280;18103;52.246;8.052;2023-03-05T07:27:19;100434.44;;;3.10;86.47
31483;BME280;18103;52.246;8.052;2023-03-05T07:29:44;100438.78;;;3.28;86.31
31483;BME280;18103;52.246;8.052;2023-03-05T07:32:10;100438.72;;;3.30;86.18
31483;BME280;18103;52.246;8.052;2023-03-05T07:34:36;100440.69;;;3.24;86.43
31483;BME280;18103;52.246;8.052;2023-03-05T07:37:02;100438.78;;;3.28;86.08
31483;BME280;18103;52.246;8.052;2023-03-05T07:39:27;100430.25;;;3.24;85.99
31483;BME280;18103;52.246;8.052;2023-03-05T07:41:52;100437.00;;;3.29;85.95
31483;BME280;18103;52.246;8.052;2023-03-05T07:44:18;100439.28;;;3.36;86.28
31483;BME280;18103;52.246;8.052;2023-03-05T07:46:44;100435.94;;;3.33;86.24
31483;BME280;18103;52.246;8.052;2023-03-05T07:49:10;100435.41;;;3.26;86.12
31483;BME280;18103;52.246;8.052;2023-03-05T07:51:35;100433.56;;;3.47;85.49
31483;BME280;18103;52.246;8.052;2023-03-05T07:54:01;100433.06;;;3.39;85.80
31483;BME280;18103;52.246;8.052;2023-03-05T07:56:29;100434.53;;;3.25;86.22
31483;BME280;18103;52.246;8.052;2023-03-05T07:58:57;100429.81;;;3.34;85.82
31483;BME280;18103;52.246;8.052;2023-03-05T08:01:22;100432.84;;;3.43;85.57
31483;BME280;18103;52.246;8.052;2023-03-05T08:03:48;100436.00;;;3.50;85.48
31483;BME280;18103;52.246;8.052;2023-03-05T08:06:14;100427.84;;;3.39;85.64
31483;BME280;18103;52.246;8.052;2023-03-05T08:08:39;100435.13;;;3.32;85.45
31483;BME280;18103;52.246;8.052;2023-03-05T08:11:07;100432.50;;;3.51;85.06
31483;BME280;18103;52.246;8.052;2023-03-05T08:13:32;100433.16;;;3.55;84.69
31483;BME280;18103;52.246;8.052;2023-03-05T08:15:58;100432.28;;;3.73;84.38
31483;BME280;18103;52.246;8.052;2023-03-05T08:18:23;100433.16;;;3.74;84.34
31483;BME280;18103;52.246;8.052;2023-03-05T08:20:49;100421.75;;;3.57;84.24
31483;BME280;18103;52.246;8.052;2023-03-05T08:23:14;100427.88;;;3.56;84.24
31483;BME280;18103;52.246;8.052;2023-03-05T08:25:40;100419.28;;;3.54;84.18
31483;BME280;18103;52.246;8.052;2023-03-05T08:28:05;100421.22;;;3.68;84.14
31483;BME280;18103;52.246;8.052;2023-03-05T08:30:30;100416.78;;;3.70;83.87
31483;BME280;18103;52.246;8.052;2023-03-05T08:32:56;100414.88;;;3.74;83.67
31483;BME280;18103;52.246;8.052;2023-03-05T08:35:22;100416.78;;;3.70;83.84
31483;BME280;18103;52.246;8.052;2023-03-05T08:37:47;100412.63;;;3.66;83.46
31483;BME280;18103;52.246;8.052;2023-03-05T08:40:14;100408.88;;;3.72;83.92
31483;BME280;18103;52.246;8.052;2023-03-05T08:42:42;100408.03;;;3.71;83.48
31483;BME280;18103;52.246;8.052;2023-03-05T08:45:08;100404.72;;;3.68;83.48
31483;BME280;18103;52.246;8.052;2023-03-05T08:47:33;100403.50;;;3.75;83.38
31483;BME280;18103;52.246;8.052;2023-03-05T08:49:59;100406.41;;;3.69;83.43
31483;BME280;18103;52.246;8.052;2023-03-05T08:52:24;100403.94;;;3.66;83.60
31483;BME280;18103;52.246;8.052;2023-03-05T08:54:51;100405.25;;;3.74;83.67
31483;BME280;18103;52.246;8.052;2023-03-05T08:57:16;100392.22;;;3.74;83.05
31483;BME280;18103;52.246;8.052;2023-03-05T08:59:42;100389.84;;;3.70;83.24
31483;BME280;18103;52.246;8.052;2023-03-05T09:02:09;100392.06;;;3.77;83.08
31483;BME280;18103;52.246;8.052;2023-03-05T09:04:36;100391.84;;;3.82;83.13
31483;BME280;18103;52.246;8.052;2023-03-05T09:07:01;100391.59;;;3.87;83.13
31483;BME280;18103;52.246;8.052;2023-03-05T09:09:27;100386.69;;;3.81;83.05
31483;BME280;18103;52.246;8.052;2023-03-05T09:11:54;100395.44;;;3.80;82.88
31483;BME280;18103;52.246;8.052;2023-03-05T09:14:21;100389.53;;;3.76;82.55
31483;BME280;18103;52.246;8.052;2023-03-05T09:16:47;100387.59;;;3.97;81.97
31483;BME280;18103;52.246;8.052;2023-03-05T09:19:12;100389.28;;;3.98;82.15
31483;BME280;18103;52.246;8.052;2023-03-05T09:21:39;100387.97;;;4.07;82.51
31483;BME280;18103;52.246;8.052;2023-03-05T09:24:04;100390.13;;;4.16;82.12
31483;BME280;18103;52.246;8.052;2023-03-05T09:26:30;100390.09;;;4.34;81.94
31483;BME280;18103;52.246;8.052;2023-03-05T09:28:55;100392.50;;;4.38;82.05
31483;BME280;18103;52.246;8.052;2023-03-05T09:31:21;100390.19;;;4.32;81.40
31483;BME280;18103;52.246;8.052;2023-03-05T09:33:47;100387.06;;;4.08;80.84
31483;BME280;18103;52.246;8.052;2023-03-05T09:36:26;100381.69;;;4.28;80.98
31483;BME280;18103;52.246;8.052;2023-03-05T09:38:52;100384.13;;;4.32;80.93
31483;BME280;18103;52.246;8.052;2023-03-05T09:41:34;100386.72;;;4.32;80.84
31483;BME280;18103;52.246;8.052;2023-03-05T09:52:53;100372.88;;;4.47;79.03
31483;BME280;18103;52.246;8.052;2023-03-05T09:55:25;100368.06;;;4.39;79.01
31483;BME280;18103;52.246;8.052;2023-03-05T09:57:56;100369.53;;;4.27;78.89
31483;BME280;18103;52.246;8.052;2023-03-05T10:00:47;100378.34;;;4.25;78.23
31483;BME280;18103;52.246;8.052;2023-03-05T10:03:26;100373.66;;;4.32;78.01
31483;BME280;18103;52.246;8.052;2023-03-05T10:08:26;100377.78;;;4.20;77.97
31483;BME280;18103;52.246;8.052;2023-03-05T10:10:57;100370.84;;;4.19;77.84
31483;BME280;18103;52.246;8.052;2023-03-05T10:13:26;100363.25;;;4.14;77.87
31483;BME280;18103;52.246;8.052;2023-03-05T10:16:20;100368.06;;;4.22;77.98
31483;BME280;18103;52.246;8.052;2023-03-05T10:18:56;100359.16;;;4.59;77.92
31483;BME280;18103;52.246;8.052;2023-03-05T10:24:44;100357.25;;;5.11;75.62
31483;BME280;18103;52.246;8.052;2023-03-05T10:27:27;100351.91;;;5.28;75.42
31483;BME280;18103;52.246;8.052;2023-03-05T10:30:12;100346.53;;;5.00;74.24
31483;BME280;18103;52.246;8.052;2023-03-05T10:41:07;100320.47;;;4.98;73.36
31483;BME280;18103;52.246;8.052;2023-03-05T10:44:11;100322.69;;;5.20;73.67
31483;BME280;18103;52.246;8.052;2023-03-05T10:46:35;100313.50;;;5.13;73.01
31483;BME280;18103;52.246;8.052;2023-03-05T10:51:39;100310.13;;;5.57;73.22
31483;BME280;18103;52.246;8.052;2023-03-05T10:54:21;100309.22;;;5.73;72.65
31483;BME280;18103;52.246;8.052;2023-03-05T10:56:49;100297.03;;;5.57;70.63
31483;BME280;18103;52.246;8.052;2023-03-05T10:59:15;100307.63;;;5.70;71.05
31483;BME280;18103;52.246;8.052;2023-03-05T11:01:40;100294.31;;;5.89;71.18
31483;BME280;18103;52.246;8.052;2023-03-05T11:04:08;100297.47;;;5.80;70.25
31483;BME280;18103;52.246;8.052;2023-03-05T11:06:49;100297.47;;;5.94;71.14
31483;BME280;18103;52.246;8.052;2023-03-05T11:09:23;100288.06;;;6.06;71.48
31483;BME280;18103;52.246;8.052;2023-03-05T11:14:27;100286.28;;;5.62;70.77
31483;BME280;18103;52.246;8.052;2023-03-05T11:16:59;100282.38;;;5.69;70.59
31483;BME280;18103;52.246;8.052;2023-03-05T11:19:25;100277.31;;;5.66;69.69
31483;BME280;18103;52.246;8.052;2023-03-05T11:24:35;100270.47;;;5.49;68.51
31483;BME280;18103;52.246;8.052;2023-03-05T11:27:01;100262.31;;;5.54;68.92
31483;BME280;18103;52.246;8.052;2023-03-05T11:29:29;100265.59;;;5.43;68.02
31483;BME280;18103;52.246;8.052;2023-03-05T11:31:55;100262.03;;;5.44;68.02
31483;BME280;18103;52.246;8.052;2023-03-05T11:34:38;100258.50;;;5.59;68.32
31483;BME280;18103;52.246;8.052;2023-03-05T11:37:05;100256.28;;;5.68;68.76
31483;BME280;18103;52.246;8.052;2023-03-05T11:39:33;100257.41;;;5.63;68.53
31483;BME280;18103;52.246;8.052;2023-03-05T11:42:16;100253.03;;;5.78;68.87
31483;BME280;18103;52.246;8.052;2023-03-05T11:44:52;100252.38;;;5.89;68.46
31483;BME280;18103;52.246;8.052;2023-03-05T11:47:43;100245.06;;;5.94;67.99
31483;BME280;18103;52.246;8.052;2023-03-05T11:50:19;100238.72;;;5.84;66.99
31483;BME280;18103;52.246;8.052;2023-03-05T11:52:48;100237.22;;;5.80;66.94
31483;BME280;18103;52.246;8.052;2023-03-05T11:55:19;100233.47;;;5.84;66.72
31483;BME280;18103;52.246;8.052;2023-03-05T12:00:31;100227.22;;;6.15;67.45
31483;BME280;18103;52.246;8.052;2023-03-05T12:03:01;100225.25;;;6.19;67.92
31483;BME280;18103;52.246;8.052;2023-03-05T12:05:29;100220.03;;;6.05;67.38
31483;BME280;18103;52.246;8.052;2023-03-05T12:07:57;100221.25;;;5.99;67.42
31483;BME280;18103;52.246;8.052;2023-03-05T12:10:25;100217.69;;;6.00;67.14
31483;BME280;18103;52.246;8.052;2023-03-05T12:21:38;100201.47;;;6.64;65.59
31483;BME280;18103;52.246;8.052;2023-03-05T12:29:49;100183.34;;;6.74;64.11
31483;BME280;18103;52.246;8.052;2023-03-05T12:39:59;100168.84;;;6.95;62.69
31483;BME280;18103;52.246;8.052;2023-03-05T12:47:41;100155.09;;;7.17;61.62
31483;BME280;18103;52.246;8.052;2023-03-05T12:53:09;100148.09;;;7.44;61.20
31483;BME280;18103;52.246;8.052;2023-03-05T12:56:17;100145.75;;;7.65;60.62
31483;BME280;18103;52.246;8.052;2023-03-05T12:58:48;100141.69;;;7.48;60.23
31483;BME280;18103;52.246;8.052;2023-03-05T13:01:35;100132.00;;;7.74;60.69
31483;BME280;18103;52.246;8.052;2023-03-05T13:04:06;100130.41;;;7.71;60.57
31483;BME280;18103;52.246;8.052;2023-03-05T13:06:37;100124.41;;;7.82;60.42
31483;BME280;18103;52.246;8.052;2023-03-05T13:09:15;100123.53;;;7.45;59.90
31483;BME280;18103;52.246;8.052;2023-03-05T13:11:44;100119.72;;;7.10;61.20
31483;BME280;18103;52.246;8.052;2023-03-05T13:14:40;100112.94;;;7.21;61.74
31483;BME280;18103;52.246;8.052;2023-03-05T13:20:35;100109.66;;;7.17;61.61
31483;BME280;18103;52.246;8.052;2023-03-05T13:23:24;100104.09;;;7.34;61.38
31483;BME280;18103;52.246;8.052;2023-03-05T13:26:00;100110.59;;;7.29;60.83
31483;BME280;18103;52.246;8.052;2023-03-05T13:28:26;100099.88;;;7.19;60.80
31483;BME280;18103;52.246;8.052;2023-03-05T13:30:54;100107.53;;;7.48;61.93
31483;BME280;18103;52.246;8.052;2023-03-05T13:33:32;100095.91;;;7.39;61.00
31483;BME280;18103;52.246;8.052;2023-03-05T13:35:58;100090.00;;;7.48;60.76
31483;BME280;18103;52.246;8.052;2023-03-05T13:38:28;100085.38;;;7.13;60.02
31483;BME280;18103;52.246;8.052;2023-03-05T13:41:22;100079.72;;;6.94;59.60
31483;BME280;18103;52.246;8.052;2023-03-05T13:46:23;100075.91;;;6.72;60.15
31483;BME280;18103;52.246;8.052;2023-03-05T13:48:49;100079.09;;;6.77;59.97
31483;BME280;18103;52.246;8.052;2023-03-05T13:51:15;100078.44;;;6.74;59.94
31483;BME280;18103;52.246;8.052;2023-03-05T13:53:42;100080.59;;;6.54;61.09
31483;BME280;18103;52.246;8.052;2023-03-05T13:56:13;100069.06;;;6.57;61.18
31483;BME280;18103;52.246;8.052;2023-03-05T14:01:20;100066.44;;;6.44;62.01
31483;BME280;18103;52.246;8.052;2023-03-05T14:03:50;100065.09;;;6.51;62.10
31483;BME280;18103;52.246;8.052;2023-03-05T14:06:18;100061.16;;;6.31;61.39
31483;BME280;18103;52.246;8.052;2023-03-05T14:08:49;100064.81;;;6.28;61.50
31483;BME280;18103;52.246;8.052;2023-03-05T14:11:16;100047.75;;;6.36;61.37
31483;BME280;18103;52.246;8.052;2023-03-05T14:13:42;100045.56;;;6.42;61.75
31483;BME280;18103;52.246;8.052;2023-03-05T14:16:11;100057.47;;;6.33;61.69